sensor_id;sensor_type;location;lat;lon;timestamp;P1;durP1;ratioP1;P2;durP2;ratioP2
15256;SDS011;7731;50.720;6.912;2022-08-02T00:01:22;6.70;;;3.40;;
15256;SDS011;7731;50.720;6.912;2022-08-02T00:03:52;4.97;;;3.72;;
15256;SDS011;7731;50.720;6.912;2022-08-02T00:06:25;5.97;;;3.45;;
15256;SDS011;7731;50.720;6.912;2022-08-02T00:08:56;6.18;;;3.30;;
15256;SDS011;7731;50.720;6.912;2022-08-02T00:11:26;4.10;;;3.60;;
15256;SDS011;7731;50.720;6.912;2022-08-02T00:13:57;4.10;;;3.55;;
15256;SDS011;7731;50.720;6.912;2022-08-02T00:16:27;4.15;;;3.78;;
15256;SDS011;7731;50.720;6.912;2022-08-02T00:19:03;5.28;;;3.58;;
15256;SDS011;7731;50.720;6.912;2022-08-02T00:21:36;3.78;;;3.03;;
15256;SDS011;7731;50.720;6.912;2022-08-02T00:24:07;5.97;;;3.97;;
15256;SDS011;7731;50.720;6.912;2022-08-02T00:26:55;3.72;;;3.35;;
15256;SDS011;7731;50.720;6.912;2022-08-02T00:29:34;5.63;;;4.10;;
15256;SDS011;7731;50.720;6.912;2022-08-02T00:32:18;5.55;;;3.80;;
15256;SDS011;7731;50.720;6.912;2022-08-02T00:34:48;4.22;;;3.85;;
15256;SDS011;7731;50.720;6.912;2022-08-02T00:37:22;4.28;;;3.67;;
15256;SDS011;7731;50.720;6.912;2022-08-02T00:39:52;4.78;;;4.15;;
15256;SDS011;7731;50.720;6.912;2022-08-02T00:42:22;6.53;;;4.15;;
15256;SDS011;7731;50.720;6.912;2022-08-02T00:44:53;4.63;;;3.80;;
15256;SDS011;7731;50.720;6.912;2022-08-02T00:47:24;5.43;;;4.28;;
15256;SDS011;7731;50.720;6.912;2022-08-02T00:49:54;4.25;;;3.85;;
15256;SDS011;7731;50.720;6.912;2022-08-02T00:52:27;5.20;;;4.35;;
15256;SDS011;7731;50.720;6.912;2022-08-02T00:54:57;4.70;;;4.18;;
15256;SDS011;7731;50.720;6.912;2022-08-02T00:57:27;4.78;;;4.20;;
15256;SDS011;7731;50.720;6.912;2022-08-02T00:59:58;4.70;;;4.20;;
15256;SDS011;7731;50.720;6.912;2022-08-02T01:02:28;4.82;;;4.30;;
15256;SDS011;7731;50.720;6.912;2022-08-02T01:04:58;4.78;;;4.38;;
15256;SDS011;7731;50.720;6.912;2022-08-02T01:07:31;4.15;;;3.75;;
15256;SDS011;7731;50.720;6.912;2022-08-02T01:10:02;6.43;;;4.20;;
15256;SDS011;7731;50.720;6.912;2022-08-02T01:12:34;4.75;;;4.00;;
15256;SDS011;7731;50.720;6.912;2022-08-02T01:15:06;6.60;;;4.25;;
15256;SDS011;7731;50.720;6.912;2022-08-02T01:17:42;6.35;;;4.00;;
15256;SDS011;7731;50.720;6.912;2022-08-02T01:20:45;4.65;;;4.18;;
15256;SDS011;7731;50.720;6.912;2022-08-02T01:23:42;5.30;;;4.30;;
15256;SDS011;7731;50.720;6.912;2022-08-02T01:26:39;4.75;;;4.25;;
15256;SDS011;7731;50.720;6.912;2022-08-02T01:29:21;4.60;;;4.20;;
15256;SDS011;7731;50.720;6.912;2022-08-02T01:31:58;4.60;;;4.20;;
15256;SDS011;7731;50.720;6.912;2022-08-02T01:34:38;4.97;;;4.10;;
15256;SDS011;7731;50.720;6.912;2022-08-02T01:37:13;9.10;;;4.57;;
15256;SDS011;7731;50.720;6.912;2022-08-02T01:39:50;4.60;;;4.00;;
15256;SDS011;7731;50.720;6.912;2022-08-02T01:42:26;5.45;;;3.88;;
15256;SDS011;7731;50.720;6.912;2022-08-02T01:45:00;4.55;;;3.83;;
15256;SDS011;7731;50.720;6.912;2022-08-02T01:47:34;5.55;;;4.10;;
15256;SDS011;7731;50.720;6.912;2022-08-02T01:50:12;4.65;;;3.70;;
15256;SDS011;7731;50.720;6.912;2022-08-02T01:52:47;4.43;;;4.03;;
15256;SDS011;7731;50.720;6.912;2022-08-02T01:55:24;4.88;;;4.47;;
15256;SDS011;7731;50.720;6.912;2022-08-02T01:58:20;4.30;;;3.90;;
15256;SDS011;7731;50.720;6.912;2022-08-02T02:00:58;4.90;;;4.50;;
15256;SDS011;7731;50.720;6.912;2022-08-02T02:03:32;4.85;;;4.45;;
15256;SDS011;7731;50.720;6.912;2022-08-02T02:06:07;5.85;;;3.97;;
15256;SDS011;7731;50.720;6.912;2022-08-02T02:08:40;4.65;;;4.25;;
15256;SDS011;7731;50.720;6.912;2022-08-02T02:11:13;6.65;;;3.97;;
15256;SDS011;7731;50.720;6.912;2022-08-02T02:14:03;6.28;;;4.32;;
15256;SDS011;7731;50.720;6.912;2022-08-02T02:16:39;7.05;;;4.50;;
15256;SDS011;7731;50.720;6.912;2022-08-02T02:19:14;6.50;;;4.25;;
15256;SDS011;7731;50.720;6.912;2022-08-02T02:21:48;5.68;;;4.13;;
15256;SDS011;7731;50.720;6.912;2022-08-02T02:24:19;5.00;;;4.50;;
15256;SDS011;7731;50.720;6.912;2022-08-02T02:26:50;5.30;;;4.65;;
15256;SDS011;7731;50.720;6.912;2022-08-02T02:29:20;5.20;;;4.75;;
15256;SDS011;7731;50.720;6.912;2022-08-02T02:31:59;5.38;;;4.10;;
15256;SDS011;7731;50.720;6.912;2022-08-02T02:34:32;5.22;;;3.95;;
15256;SDS011;7731;50.720;6.912;2022-08-02T02:37:11;5.07;;;4.68;;
15256;SDS011;7731;50.720;6.912;2022-08-02T02:39:47;4.88;;;4.32;;
15256;SDS011;7731;50.720;6.912;2022-08-02T02:42:22;7.85;;;4.40;;
15256;SDS011;7731;50.720;6.912;2022-08-02T02:44:58;4.57;;;4.15;;
15256;SDS011;7731;50.720;6.912;2022-08-02T02:47:34;5.03;;;4.53;;
15256;SDS011;7731;50.720;6.912;2022-08-02T02:50:07;5.57;;;3.67;;
15256;SDS011;7731;50.720;6.912;2022-08-02T02:52:39;4.25;;;3.85;;
15256;SDS011;7731;50.720;6.912;2022-08-02T02:55:10;5.70;;;4.35;;
15256;SDS011;7731;50.720;6.912;2022-08-02T02:57:41;5.43;;;4.13;;
15256;SDS011;7731;50.720;6.912;2022-08-02T03:00:13;4.57;;;4.18;;
15256;SDS011;7731;50.720;6.912;2022-08-02T03:03:07;4.93;;;4.07;;
15256;SDS011;7731;50.720;6.912;2022-08-02T03:05:40;7.82;;;4.20;;
15256;SDS011;7731;50.720;6.912;2022-08-02T03:08:10;5.18;;;4.68;;
15256;SDS011;7731;50.720;6.912;2022-08-02T03:10:41;5.35;;;4.40;;
15256;SDS011;7731;50.720;6.912;2022-08-02T03:13:13;4.63;;;4.22;;
15256;SDS011;7731;50.720;6.912;2022-08-02T03:15:45;4.25;;;3.95;;
15256;SDS011;7731;50.720;6.912;2022-08-02T03:18:31;4.68;;;4.28;;
15256;SDS011;7731;50.720;6.912;2022-08-02T03:21:04;4.18;;;3.78;;
15256;SDS011;7731;50.720;6.912;2022-08-02T03:23:37;5.68;;;4.57;;
15256;SDS011;7731;50.720;6.912;2022-08-02T03:26:08;5.03;;;4.53;;
15256;SDS011;7731;50.720;6.912;2022-08-02T03:28:39;4.20;;;3.80;;
15256;SDS011;7731;50.720;6.912;2022-08-02T03:31:10;5.25;;;4.30;;
15256;SDS011;7731;50.720;6.912;2022-08-02T03:33:43;5.85;;;4.20;;
15256;SDS011;7731;50.720;6.912;2022-08-02T03:36:15;4.60;;;4.20;;
15256;SDS011;7731;50.720;6.912;2022-08-02T03:38:49;4.93;;;4.32;;
15256;SDS011;7731;50.720;6.912;2022-08-02T03:41:21;4.72;;;4.20;;
15256;SDS011;7731;50.720;6.912;2022-08-02T03:43:52;4.57;;;4.15;;
15256;SDS011;7731;50.720;6.912;2022-08-02T03:46:23;5.85;;;4.22;;
15256;SDS011;7731;50.720;6.912;2022-08-02T03:48:57;4.63;;;3.85;;
15256;SDS011;7731;50.720;6.912;2022-08-02T03:51:28;4.40;;;4.00;;
15256;SDS011;7731;50.720;6.912;2022-08-02T03:54:00;4.53;;;4.00;;
15256;SDS011;7731;50.720;6.912;2022-08-02T03:56:30;4.55;;;4.18;;
15256;SDS011;7731;50.720;6.912;2022-08-02T03:59:08;4.32;;;3.97;;
15256;SDS011;7731;50.720;6.912;2022-08-02T04:01:40;4.88;;;4.40;;
15256;SDS011;7731;50.720;6.912;2022-08-02T04:04:14;4.35;;;3.95;;
15256;SDS011;7731;50.720;6.912;2022-08-02T04:06:44;5.72;;;4.53;;
15256;SDS011;7731;50.720;6.912;2022-08-02T04:09:14;4.82;;;4.32;;
15256;SDS011;7731;50.720;6.912;2022-08-02T04:11:44;6.53;;;4.35;;
15256;SDS011;7731;50.720;6.912;2022-08-02T04:14:15;4.35;;;3.95;;
15256;SDS011;7731;50.720;6.912;2022-08-02T04:16:47;5.72;;;4.30;;
15256;SDS011;7731;50.720;6.912;2022-08-02T04:19:36;4.35;;;4.00;;
15256;SDS011;7731;50.720;6.912;2022-08-02T04:22:13;5.30;;;4.50;;
15256;SDS011;7731;50.720;6.912;2022-08-02T04:24:49;4.53;;;3.88;;
15256;SDS011;7731;50.720;6.912;2022-08-02T04:27:23;5.25;;;4.18;;
15256;SDS011;7731;50.720;6.912;2022-08-02T04:30:16;5.85;;;4.22;;
15256;SDS011;7731;50.720;6.912;2022-08-02T04:32:47;5.63;;;4.15;;
15256;SDS011;7731;50.720;6.912;2022-08-02T04:35:20;4.75;;;4.25;;
15256;SDS011;7731;50.720;6.912;2022-08-02T04:37:51;5.93;;;4.47;;
15256;SDS011;7731;50.720;6.912;2022-08-02T04:40:35;5.38;;;4.15;;
15256;SDS011;7731;50.720;6.912;2022-08-02T04:43:06;4.63;;;4.20;;
15256;SDS011;7731;50.720;6.912;2022-08-02T04:45:36;5.65;;;4.47;;
15256;SDS011;7731;50.720;6.912;2022-08-02T04:48:07;6.38;;;4.38;;
15256;SDS011;7731;50.720;6.912;2022-08-02T04:50:39;5.95;;;4.80;;
15256;SDS011;7731;50.720;6.912;2022-08-02T04:53:10;6.88;;;4.78;;
15256;SDS011;7731;50.720;6.912;2022-08-02T04:55:40;4.93;;;4.30;;
15256;SDS011;7731;50.720;6.912;2022-08-02T04:58:10;6.80;;;4.65;;
15256;SDS011;7731;50.720;6.912;2022-08-02T05:01:01;5.40;;;4.60;;
15256;SDS011;7731;50.720;6.912;2022-08-02T05:03:31;5.57;;;4.90;;
15256;SDS011;7731;50.720;6.912;2022-08-02T05:06:04;5.30;;;4.80;;
15256;SDS011;7731;50.720;6.912;2022-08-02T05:08:45;5.35;;;4.90;;
15256;SDS011;7731;50.720;6.912;2022-08-02T05:11:19;5.80;;;4.65;;
15256;SDS011;7731;50.720;6.912;2022-08-02T05:14:01;5.40;;;4.30;;
15256;SDS011;7731;50.720;6.912;2022-08-02T05:16:32;4.50;;;4.10;;
15256;SDS011;7731;50.720;6.912;2022-08-02T05:19:03;4.68;;;4.28;;
15256;SDS011;7731;50.720;6.912;2022-08-02T05:21:36;4.88;;;4.38;;
15256;SDS011;7731;50.720;6.912;2022-08-02T05:24:06;5.05;;;4.53;;
15256;SDS011;7731;50.720;6.912;2022-08-02T05:26:37;4.70;;;4.30;;
15256;SDS011;7731;50.720;6.912;2022-08-02T05:29:07;6.00;;;4.00;;
15256;SDS011;7731;50.720;6.912;2022-08-02T05:31:37;4.80;;;4.40;;
15256;SDS011;7731;50.720;6.912;2022-08-02T05:34:08;4.97;;;4.60;;
15256;SDS011;7731;50.720;6.912;2022-08-02T05:36:41;4.70;;;4.35;;
15256;SDS011;7731;50.720;6.912;2022-08-02T05:39:11;5.75;;;4.25;;
15256;SDS011;7731;50.720;6.912;2022-08-02T05:41:45;5.05;;;4.38;;
15256;SDS011;7731;50.720;6.912;2022-08-02T05:44:15;6.95;;;4.60;;
15256;SDS011;7731;50.720;6.912;2022-08-02T05:46:45;5.18;;;3.80;;
15256;SDS011;7731;50.720;6.912;2022-08-02T05:49:16;5.30;;;3.92;;
15256;SDS011;7731;50.720;6.912;2022-08-02T05:51:51;5.07;;;3.40;;
15256;SDS011;7731;50.720;6.912;2022-08-02T05:54:35;3.95;;;3.55;;
15256;SDS011;7731;50.720;6.912;2022-08-02T05:57:17;3.28;;;2.97;;
15256;SDS011;7731;50.720;6.912;2022-08-02T06:00:09;3.35;;;2.97;;
15256;SDS011;7731;50.720;6.912;2022-08-02T06:02:43;3.70;;;2.78;;
15256;SDS011;7731;50.720;6.912;2022-08-02T06:05:48;5.25;;;3.40;;
15256;SDS011;7731;50.720;6.912;2022-08-02T06:08:30;3.60;;;2.95;;
15256;SDS011;7731;50.720;6.912;2022-08-02T06:11:15;4.28;;;2.50;;
15256;SDS011;7731;50.720;6.912;2022-08-02T06:13:50;3.58;;;3.20;;
15256;SDS011;7731;50.720;6.912;2022-08-02T06:16:21;5.22;;;2.60;;
15256;SDS011;7731;50.720;6.912;2022-08-02T06:18:58;6.38;;;3.03;;
15256;SDS011;7731;50.720;6.912;2022-08-02T06:21:29;4.43;;;2.58;;
15256;SDS011;7731;50.720;6.912;2022-08-02T06:24:24;4.63;;;2.80;;
15256;SDS011;7731;50.720;6.912;2022-08-02T06:26:54;2.65;;;2.45;;
15256;SDS011;7731;50.720;6.912;2022-08-02T06:29:26;3.35;;;2.40;;
15256;SDS011;7731;50.720;6.912;2022-08-02T06:32:05;5.90;;;2.45;;
15256;SDS011;7731;50.720;6.912;2022-08-02T06:34:45;4.88;;;2.63;;
15256;SDS011;7731;50.720;6.912;2022-08-02T06:37:40;5.25;;;2.80;;
15256;SDS011;7731;50.720;6.912;2022-08-02T06:40:25;2.90;;;2.58;;
15256;SDS011;7731;50.720;6.912;2022-08-02T06:43:03;5.15;;;2.55;;
15256;SDS011;7731;50.720;6.912;2022-08-02T06:45:41;3.03;;;2.58;;
15256;SDS011;7731;50.720;6.912;2022-08-02T06:48:11;2.33;;;2.05;;
15256;SDS011;7731;50.720;6.912;2022-08-02T06:50:42;2.40;;;2.00;;
15256;SDS011;7731;50.720;6.912;2022-08-02T06:53:12;3.58;;;2.67;;
15256;SDS011;7731;50.720;6.912;2022-08-02T06:55:45;2.78;;;2.40;;
15256;SDS011;7731;50.720;6.912;2022-08-02T06:58:15;4.15;;;2.42;;
15256;SDS011;7731;50.720;6.912;2022-08-02T07:00:46;2.75;;;2.20;;
15256;SDS011;7731;50.720;6.912;2022-08-02T07:03:16;3.15;;;2.40;;
15256;SDS011;7731;50.720;6.912;2022-08-02T07:05:47;2.67;;;2.40;;
15256;SDS011;7731;50.720;6.912;2022-08-02T07:08:17;3.25;;;2.28;;
15256;SDS011;7731;50.720;6.912;2022-08-02T07:10:51;2.55;;;2.05;;
15256;SDS011;7731;50.720;6.912;2022-08-02T07:13:23;3.25;;;2.22;;
15256;SDS011;7731;50.720;6.912;2022-08-02T07:15:54;2.80;;;2.42;;
15256;SDS011;7731;50.720;6.912;2022-08-02T07:18:24;5.72;;;2.20;;
15256;SDS011;7731;50.720;6.912;2022-08-02T07:20:55;2.50;;;1.90;;
15256;SDS011;7731;50.720;6.912;2022-08-02T07:23:25;3.03;;;2.17;;
15256;SDS011;7731;50.720;6.912;2022-08-02T07:25:58;2.42;;;2.03;;
15256;SDS011;7731;50.720;6.912;2022-08-02T07:28:31;4.72;;;2.30;;
15256;SDS011;7731;50.720;6.912;2022-08-02T07:31:04;2.60;;;2.08;;
15256;SDS011;7731;50.720;6.912;2022-08-02T07:33:34;4.90;;;2.30;;
15256;SDS011;7731;50.720;6.912;2022-08-02T07:36:08;2.03;;;1.83;;
15256;SDS011;7731;50.720;6.912;2022-08-02T07:38:47;2.60;;;2.40;;
15256;SDS011;7731;50.720;6.912;2022-08-02T07:41:21;2.78;;;1.90;;
15256;SDS011;7731;50.720;6.912;2022-08-02T07:43:51;3.35;;;2.00;;
15256;SDS011;7731;50.720;6.912;2022-08-02T07:46:21;4.20;;;2.70;;
15256;SDS011;7731;50.720;6.912;2022-08-02T07:48:53;2.45;;;2.25;;
15256;SDS011;7731;50.720;6.912;2022-08-02T07:51:24;3.33;;;2.88;;
15256;SDS011;7731;50.720;6.912;2022-08-02T07:53:54;3.90;;;2.30;;
15256;SDS011;7731;50.720;6.912;2022-08-02T07:56:32;3.10;;;2.70;;
15256;SDS011;7731;50.720;6.912;2022-08-02T07:59:02;4.57;;;2.70;;
15256;SDS011;7731;50.720;6.912;2022-08-02T08:01:35;2.70;;;2.50;;
15256;SDS011;7731;50.720;6.912;2022-08-02T08:04:11;2.15;;;1.95;;
15256;SDS011;7731;50.720;6.912;2022-08-02T08:06:41;3.03;;;2.53;;
15256;SDS011;7731;50.720;6.912;2022-08-02T08:09:14;2.20;;;2.00;;
15256;SDS011;7731;50.720;6.912;2022-08-02T08:11:47;3.55;;;2.10;;
15256;SDS011;7731;50.720;6.912;2022-08-02T08:14:18;2.97;;;1.98;;
15256;SDS011;7731;50.720;6.912;2022-08-02T08:16:48;2.22;;;2.00;;
15256;SDS011;7731;50.720;6.912;2022-08-02T08:19:18;2.35;;;2.10;;
15256;SDS011;7731;50.720;6.912;2022-08-02T08:22:08;3.53;;;2.17;;
15256;SDS011;7731;50.720;6.912;2022-08-02T08:24:40;3.20;;;2.38;;
15256;SDS011;7731;50.720;6.912;2022-08-02T08:27:13;2.95;;;1.90;;
15256;SDS011;7731;50.720;6.912;2022-08-02T08:29:43;2.25;;;2.05;;
15256;SDS011;7731;50.720;6.912;2022-08-02T08:32:14;2.38;;;1.85;;
15256;SDS011;7731;50.720;6.912;2022-08-02T08:34:46;3.17;;;2.13;;
15256;SDS011;7731;50.720;6.912;2022-08-02T08:37:17;4.97;;;2.25;;
15256;SDS011;7731;50.720;6.912;2022-08-02T08:39:47;2.45;;;2.10;;
15256;SDS011;7731;50.720;6.912;2022-08-02T08:42:27;1.88;;;1.77;;
15256;SDS011;7731;50.720;6.912;2022-08-02T08:44:59;2.55;;;1.90;;
15256;SDS011;7731;50.720;6.912;2022-08-02T08:47:32;1.83;;;1.73;;
15256;SDS011;7731;50.720;6.912;2022-08-02T08:50:05;2.25;;;1.90;;
15256;SDS011;7731;50.720;6.912;2022-08-02T08:52:47;3.88;;;1.98;;
15256;SDS011;7731;50.720;6.912;2022-08-02T08:58:23;2.10;;;1.90;;
15256;SDS011;7731;50.720;6.912;2022-08-02T09:00:58;1.65;;;1.55;;
15256;SDS011;7731;50.720;6.912;2022-08-02T09:03:34;1.90;;;1.73;;
15256;SDS011;7731;50.720;6.912;2022-08-02T09:06:10;2.20;;;1.75;;
15256;SDS011;7731;50.720;6.912;2022-08-02T10:27:50;8.40;;;2.05;;
15256;SDS011;7731;50.720;6.912;2022-08-02T10:33:23;2.75;;;1.40;;
15256;SDS011;7731;50.720;6.912;2022-08-02T10:36:03;2.38;;;1.55;;
15256;SDS011;7731;50.720;6.912;2022-08-02T10:38:36;1.52;;;1.42;;
15256;SDS011;7731;50.720;6.912;2022-08-02T10:41:07;5.10;;;1.70;;
15256;SDS011;7731;50.720;6.912;2022-08-02T10:43:43;1.58;;;1.45;;
15256;SDS011;7731;50.720;6.912;2022-08-02T10:49:10;2.42;;;1.48;;
15256;SDS011;7731;50.720;6.912;2022-08-02T10:52:03;2.55;;;1.58;;
15256;SDS011;7731;50.720;6.912;2022-08-02T10:54:37;3.72;;;1.50;;
15256;SDS011;7731;50.720;6.912;2022-08-02T10:57:13;8.50;;;2.00;;
15256;SDS011;7731;50.720;6.912;2022-08-02T10:59:50;3.13;;;2.05;;
15256;SDS011;7731;50.720;6.912;2022-08-02T11:02:37;3.60;;;1.98;;
15256;SDS011;7731;50.720;6.912;2022-08-02T11:05:12;3.05;;;1.70;;
15256;SDS011;7731;50.720;6.912;2022-08-02T11:07:45;1.60;;;1.42;;
15256;SDS011;7731;50.720;6.912;2022-08-02T11:10:32;2.72;;;1.77;;
15256;SDS011;7731;50.720;6.912;2022-08-02T11:13:06;1.70;;;1.55;;
15256;SDS011;7731;50.720;6.912;2022-08-02T11:15:49;1.73;;;1.63;;
15256;SDS011;7731;50.720;6.912;2022-08-02T11:21:32;1.63;;;1.52;;
15256;SDS011;7731;50.720;6.912;2022-08-02T11:26:55;3.28;;;1.75;;
15256;SDS011;7731;50.720;6.912;2022-08-02T11:29:31;2.70;;;1.70;;
15256;SDS011;7731;50.720;6.912;2022-08-02T11:32:15;2.55;;;1.67;;
15256;SDS011;7731;50.720;6.912;2022-08-02T11:34:56;9.25;;;8.32;;
15256;SDS011;7731;50.720;6.912;2022-08-02T11:37:28;4.10;;;2.63;;
15256;SDS011;7731;50.720;6.912;2022-08-02T11:40:01;8.95;;;2.22;;
15256;SDS011;7731;50.720;6.912;2022-08-02T11:42:45;4.63;;;1.67;;
15256;SDS011;7731;50.720;6.912;2022-08-02T11:45:23;1.88;;;1.70;;
15256;SDS011;7731;50.720;6.912;2022-08-02T11:47:58;2.63;;;1.80;;
15256;SDS011;7731;50.720;6.912;2022-08-02T11:50:29;3.90;;;1.52;;
15256;SDS011;7731;50.720;6.912;2022-08-02T11:52:59;1.65;;;1.55;;
15256;SDS011;7731;50.720;6.912;2022-08-02T11:55:30;1.90;;;1.67;;
15256;SDS011;7731;50.720;6.912;2022-08-02T11:58:01;1.98;;;1.77;;
15256;SDS011;7731;50.720;6.912;2022-08-02T12:00:35;2.35;;;1.70;;
15256;SDS011;7731;50.720;6.912;2022-08-02T12:03:09;2.58;;;1.92;;
15256;SDS011;7731;50.720;6.912;2022-08-02T12:05:47;2.10;;;1.70;;
15256;SDS011;7731;50.720;6.912;2022-08-02T12:08:32;1.70;;;1.60;;
15256;SDS011;7731;50.720;6.912;2022-08-02T12:11:05;2.17;;;1.70;;
15256;SDS011;7731;50.720;6.912;2022-08-02T12:13:44;2.72;;;1.75;;
15256;SDS011;7731;50.720;6.912;2022-08-02T12:16:23;3.72;;;1.88;;
15256;SDS011;7731;50.720;6.912;2022-08-02T12:19:09;2.58;;;1.42;;
15256;SDS011;7731;50.720;6.912;2022-08-02T12:21:48;1.85;;;1.75;;
15256;SDS011;7731;50.720;6.912;2022-08-02T12:24:38;2.75;;;1.80;;
15256;SDS011;7731;50.720;6.912;2022-08-02T12:27:26;2.50;;;1.80;;
15256;SDS011;7731;50.720;6.912;2022-08-02T12:30:04;2.75;;;1.90;;
15256;SDS011;7731;50.720;6.912;2022-08-02T12:32:37;2.22;;;2.03;;
15256;SDS011;7731;50.720;6.912;2022-08-02T12:35:13;2.42;;;1.73;;
15256;SDS011;7731;50.720;6.912;2022-08-02T12:37:52;2.85;;;1.73;;
15256;SDS011;7731;50.720;6.912;2022-08-02T12:40:23;1.88;;;1.70;;
15256;SDS011;7731;50.720;6.912;2022-08-02T12:42:58;2.03;;;1.65;;
15256;SDS011;7731;50.720;6.912;2022-08-02T12:45:31;2.25;;;1.80;;
15256;SDS011;7731;50.720;6.912;2022-08-02T12:48:15;1.63;;;1.52;;
15256;SDS011;7731;50.720;6.912;2022-08-02T12:51:20;2.25;;;1.80;;
15256;SDS011;7731;50.720;6.912;2022-08-02T12:54:13;4.80;;;1.83;;
15256;SDS011;7731;50.720;6.912;2022-08-02T12:56:56;1.70;;;1.60;;
15256;SDS011;7731;50.720;6.912;2022-08-02T12:59:32;1.98;;;1.80;;
15256;SDS011;7731;50.720;6.912;2022-08-02T13:02:05;2.42;;;1.67;;
15256;SDS011;7731;50.720;6.912;2022-08-02T13:04:40;13.02;;;2.50;;
15256;SDS011;7731;50.720;6.912;2022-08-02T13:07:18;7.07;;;2.00;;
15256;SDS011;7731;50.720;6.912;2022-08-02T13:09:49;8.15;;;2.25;;
15256;SDS011;7731;50.720;6.912;2022-08-02T13:12:28;1.60;;;1.40;;
15256;SDS011;7731;50.720;6.912;2022-08-02T13:14:59;3.67;;;1.77;;
15256;SDS011;7731;50.720;6.912;2022-08-02T13:17:38;4.57;;;1.70;;
15256;SDS011;7731;50.720;6.912;2022-08-02T13:20:08;3.08;;;1.90;;
15256;SDS011;7731;50.720;6.912;2022-08-02T13:22:45;2.45;;;1.60;;
15256;SDS011;7731;50.720;6.912;2022-08-02T13:25:19;1.77;;;1.67;;
15256;SDS011;7731;50.720;6.912;2022-08-02T13:27:49;1.80;;;1.70;;
15256;SDS011;7731;50.720;6.912;2022-08-02T13:30:20;2.13;;;1.50;;
15256;SDS011;7731;50.720;6.912;2022-08-02T13:32:50;2.88;;;1.95;;
15256;SDS011;7731;50.720;6.912;2022-08-02T13:35:26;2.67;;;1.63;;
15256;SDS011;7731;50.720;6.912;2022-08-02T13:37:59;2.53;;;1.75;;
15256;SDS011;7731;50.720;6.912;2022-08-02T13:40:29;3.00;;;1.50;;
15256;SDS011;7731;50.720;6.912;2022-08-02T13:43:20;1.98;;;1.70;;
15256;SDS011;7731;50.720;6.912;2022-08-02T13:46:10;2.05;;;1.83;;
15256;SDS011;7731;50.720;6.912;2022-08-02T13:48:54;1.60;;;1.50;;
15256;SDS011;7731;50.720;6.912;2022-08-02T13:51:25;1.92;;;1.77;;
15256;SDS011;7731;50.720;6.912;2022-08-02T13:53:58;2.45;;;1.73;;
15256;SDS011;7731;50.720;6.912;2022-08-02T13:56:28;2.25;;;1.50;;
15256;SDS011;7731;50.720;6.912;2022-08-02T13:59:01;2.85;;;1.50;;
15256;SDS011;7731;50.720;6.912;2022-08-02T14:01:52;2.60;;;1.80;;
15256;SDS011;7731;50.720;6.912;2022-08-02T14:04:24;2.42;;;1.65;;
15256;SDS011;7731;50.720;6.912;2022-08-02T14:06:56;1.60;;;1.50;;
15256;SDS011;7731;50.720;6.912;2022-08-02T14:09:29;4.10;;;1.67;;
15256;SDS011;7731;50.720;6.912;2022-08-02T14:12:01;3.17;;;1.80;;
15256;SDS011;7731;50.720;6.912;2022-08-02T14:14:32;1.80;;;1.70;;
15256;SDS011;7731;50.720;6.912;2022-08-02T14:17:02;1.80;;;1.70;;
15256;SDS011;7731;50.720;6.912;2022-08-02T14:19:32;2.80;;;2.10;;
15256;SDS011;7731;50.720;6.912;2022-08-02T14:22:02;3.95;;;2.35;;
15256;SDS011;7731;50.720;6.912;2022-08-02T14:24:40;6.72;;;2.50;;
15256;SDS011;7731;50.720;6.912;2022-08-02T14:27:11;3.78;;;2.10;;
15256;SDS011;7731;50.720;6.912;2022-08-02T14:29:41;6.10;;;2.75;;
15256;SDS011;7731;50.720;6.912;2022-08-02T14:32:13;13.68;;;3.95;;
15256;SDS011;7731;50.720;6.912;2022-08-02T14:34:43;3.65;;;1.90;;
15256;SDS011;7731;50.720;6.912;2022-08-02T14:37:14;5.38;;;2.67;;
15256;SDS011;7731;50.720;6.912;2022-08-02T14:39:47;2.28;;;2.08;;
15256;SDS011;7731;50.720;6.912;2022-08-02T14:42:26;2.00;;;1.70;;
15256;SDS011;7731;50.720;6.912;2022-08-02T14:44:56;3.80;;;2.20;;
15256;SDS011;7731;50.720;6.912;2022-08-02T14:47:27;4.38;;;2.22;;
15256;SDS011;7731;50.720;6.912;2022-08-02T14:49:57;3.25;;;1.60;;
15256;SDS011;7731;50.720;6.912;2022-08-02T14:52:27;5.78;;;2.47;;
15256;SDS011;7731;50.720;6.912;2022-08-02T14:55:00;2.03;;;1.70;;
15256;SDS011;7731;50.720;6.912;2022-08-02T14:57:31;3.22;;;2.17;;
15256;SDS011;7731;50.720;6.912;2022-08-02T15:00:02;9.98;;;2.97;;
15256;SDS011;7731;50.720;6.912;2022-08-02T15:02:36;2.10;;;1.80;;
15256;SDS011;7731;50.720;6.912;2022-08-02T15:05:07;3.38;;;2.08;;
15256;SDS011;7731;50.720;6.912;2022-08-02T15:07:37;2.28;;;1.70;;
15256;SDS011;7731;50.720;6.912;2022-08-02T15:10:17;3.92;;;2.00;;
15256;SDS011;7731;50.720;6.912;2022-08-02T15:12:47;3.33;;;2.08;;
15256;SDS011;7731;50.720;6.912;2022-08-02T15:15:18;1.90;;;1.80;;
15256;SDS011;7731;50.720;6.912;2022-08-02T15:17:51;2.00;;;1.70;;
15256;SDS011;7731;50.720;6.912;2022-08-02T15:20:21;4.60;;;1.88;;
15256;SDS011;7731;50.720;6.912;2022-08-02T15:22:52;1.80;;;1.70;;
15256;SDS011;7731;50.720;6.912;2022-08-02T15:25:26;3.80;;;2.00;;
15256;SDS011;7731;50.720;6.912;2022-08-02T15:27:57;3.47;;;2.30;;
15256;SDS011;7731;50.720;6.912;2022-08-02T15:30:27;11.57;;;2.88;;
15256;SDS011;7731;50.720;6.912;2022-08-02T15:32:57;3.63;;;1.80;;
15256;SDS011;7731;50.720;6.912;2022-08-02T15:35:27;5.10;;;2.00;;
15256;SDS011;7731;50.720;6.912;2022-08-02T15:37:58;2.05;;;1.83;;
15256;SDS011;7731;50.720;6.912;2022-08-02T15:40:31;5.47;;;2.33;;
15256;SDS011;7731;50.720;6.912;2022-08-02T15:43:02;9.32;;;2.65;;
15256;SDS011;7731;50.720;6.912;2022-08-02T15:45:33;3.47;;;2.03;;
15256;SDS011;7731;50.720;6.912;2022-08-02T15:48:03;1.90;;;1.50;;
15256;SDS011;7731;50.720;6.912;2022-08-02T15:50:34;4.47;;;2.33;;
15256;SDS011;7731;50.720;6.912;2022-08-02T15:53:04;4.75;;;2.13;;
15256;SDS011;7731;50.720;6.912;2022-08-02T15:55:37;8.43;;;3.25;;
15256;SDS011;7731;50.720;6.912;2022-08-02T15:58:27;2.70;;;1.70;;
15256;SDS011;7731;50.720;6.912;2022-08-02T16:01:05;6.00;;;2.45;;
15256;SDS011;7731;50.720;6.912;2022-08-02T16:03:36;2.72;;;1.67;;
15256;SDS011;7731;50.720;6.912;2022-08-02T16:06:06;4.30;;;2.10;;
15256;SDS011;7731;50.720;6.912;2022-08-02T16:08:36;3.10;;;2.00;;
15256;SDS011;7731;50.720;6.912;2022-08-02T16:11:22;34.22;;;4.55;;
15256;SDS011;7731;50.720;6.912;2022-08-02T16:13:52;2.75;;;1.63;;
15256;SDS011;7731;50.720;6.912;2022-08-02T16:16:25;12.00;;;3.15;;
15256;SDS011;7731;50.720;6.912;2022-08-02T16:18:57;3.15;;;2.05;;
15256;SDS011;7731;50.720;6.912;2022-08-02T16:21:49;11.02;;;2.80;;
15256;SDS011;7731;50.720;6.912;2022-08-02T16:24:19;5.35;;;2.20;;
15256;SDS011;7731;50.720;6.912;2022-08-02T16:26:54;6.05;;;2.10;;
15256;SDS011;7731;50.720;6.912;2022-08-02T16:29:25;5.85;;;1.90;;
15256;SDS011;7731;50.720;6.912;2022-08-02T16:31:59;3.13;;;1.98;;
15256;SDS011;7731;50.720;6.912;2022-08-02T16:34:29;2.65;;;1.85;;
15256;SDS011;7731;50.720;6.912;2022-08-02T16:37:19;4.13;;;2.40;;
15256;SDS011;7731;50.720;6.912;2022-08-02T16:39:49;4.57;;;2.58;;
15256;SDS011;7731;50.720;6.912;2022-08-02T16:42:22;3.08;;;2.25;;
15256;SDS011;7731;50.720;6.912;2022-08-02T16:44:52;5.53;;;2.92;;
15256;SDS011;7731;50.720;6.912;2022-08-02T16:47:23;2.20;;;1.95;;
15256;SDS011;7731;50.720;6.912;2022-08-02T16:50:08;2.15;;;1.75;;
15256;SDS011;7731;50.720;6.912;2022-08-02T16:52:39;2.78;;;1.63;;
15256;SDS011;7731;50.720;6.912;2022-08-02T16:55:10;2.42;;;1.77;;
15256;SDS011;7731;50.720;6.912;2022-08-02T16:57:43;4.43;;;2.10;;
15256;SDS011;7731;50.720;6.912;2022-08-02T17:00:15;2.45;;;1.92;;
15256;SDS011;7731;50.720;6.912;2022-08-02T17:02:46;2.08;;;1.85;;
15256;SDS011;7731;50.720;6.912;2022-08-02T17:05:16;2.85;;;1.90;;
15256;SDS011;7731;50.720;6.912;2022-08-02T17:07:47;1.80;;;1.70;;
15256;SDS011;7731;50.720;6.912;2022-08-02T17:10:37;2.17;;;1.98;;
15256;SDS011;7731;50.720;6.912;2022-08-02T17:13:10;2.03;;;1.83;;
15256;SDS011;7731;50.720;6.912;2022-08-02T17:15:40;1.90;;;1.60;;
15256;SDS011;7731;50.720;6.912;2022-08-02T17:18:31;1.80;;;1.67;;
15256;SDS011;7731;50.720;6.912;2022-08-02T17:21:08;1.98;;;1.85;;